sensor_id;sensor_type;location;lat;lon;timestamp;P1;durP1;ratioP1;P2;durP2;ratioP2
10416;SDS011;5255;49.432;8.680;2022-07-24T00:01:45;3.00;;;2.70;;
10416;SDS011;5255;49.432;8.680;2022-07-24T00:04:13;3.90;;;3.17;;
10416;SDS011;5255;49.432;8.680;2022-07-24T00:06:40;3.67;;;3.28;;
10416;SDS011;5255;49.432;8.680;2022-07-24T00:09:07;5.47;;;3.15;;
10416;SDS011;5255;49.432;8.680;2022-07-24T00:11:34;3.72;;;2.97;;
10416;SDS011;5255;49.432;8.680;2022-07-24T00:14:03;3.85;;;2.67;;
10416;SDS011;5255;49.432;8.680;2022-07-24T00:16:30;3.00;;;2.70;;
10416;SDS011;5255;49.432;8.680;2022-07-24T00:18:57;3.05;;;2.75;;
10416;SDS011;5255;49.432;8.680;2022-07-24T00:21:24;3.35;;;2.80;;
10416;SDS011;5255;49.432;8.680;2022-07-24T00:23:51;3.00;;;2.35;;
10416;SDS011;5255;49.432;8.680;2022-07-24T00:26:18;2.85;;;2.55;;
10416;SDS011;5255;49.432;8.680;2022-07-24T00:28:46;6.03;;;3.00;;
10416;SDS011;5255;49.432;8.680;2022-07-24T00:31:15;4.63;;;2.75;;
10416;SDS011;5255;49.432;8.680;2022-07-24T00:33:42;4.45;;;3.08;;
10416;SDS011;5255;49.432;8.680;2022-07-24T00:36:10;3.65;;;3.30;;
10416;SDS011;5255;49.432;8.680;2022-07-24T00:38:37;5.20;;;3.35;;
10416;SDS011;5255;49.432;8.680;2022-07-24T00:41:04;3.08;;;2.55;;
10416;SDS011;5255;49.432;8.680;2022-07-24T00:43:31;5.95;;;3.22;;
10416;SDS011;5255;49.432;8.680;2022-07-24T00:45:58;4.75;;;3.30;;
10416;SDS011;5255;49.432;8.680;2022-07-24T00:48:27;3.47;;;3.08;;
10416;SDS011;5255;49.432;8.680;2022-07-24T00:50:54;3.67;;;2.97;;
10416;SDS011;5255;49.432;8.680;2022-07-24T00:53:21;4.13;;;2.85;;
10416;SDS011;5255;49.432;8.680;2022-07-24T00:55:49;4.05;;;2.70;;
10416;SDS011;5255;49.432;8.680;2022-07-24T00:58:16;3.80;;;3.15;;
10416;SDS011;5255;49.432;8.680;2022-07-24T01:00:43;4.45;;;3.00;;
10416;SDS011;5255;49.432;8.680;2022-07-24T01:03:10;3.25;;;2.95;;
10416;SDS011;5255;49.432;8.680;2022-07-24T01:05:38;3.75;;;3.08;;
10416;SDS011;5255;49.432;8.680;2022-07-24T01:08:05;4.25;;;2.70;;
10416;SDS011;5255;49.432;8.680;2022-07-24T01:10:33;3.40;;;2.65;;
10416;SDS011;5255;49.432;8.680;2022-07-24T01:13:00;3.20;;;2.88;;
10416;SDS011;5255;49.432;8.680;2022-07-24T01:15:27;3.80;;;2.97;;
10416;SDS011;5255;49.432;8.680;2022-07-24T01:17:55;3.03;;;2.72;;
10416;SDS011;5255;49.432;8.680;2022-07-24T01:20:22;3.70;;;2.80;;
10416;SDS011;5255;49.432;8.680;2022-07-24T01:22:50;4.80;;;2.72;;
10416;SDS011;5255;49.432;8.680;2022-07-24T01:25:17;3.47;;;2.88;;
10416;SDS011;5255;49.432;8.680;2022-07-24T01:27:44;4.65;;;3.20;;
10416;SDS011;5255;49.432;8.680;2022-07-24T01:30:11;5.25;;;3.15;;
10416;SDS011;5255;49.432;8.680;2022-07-24T01:32:39;4.15;;;3.28;;
10416;SDS011;5255;49.432;8.680;2022-07-24T01:35:07;4.00;;;3.55;;
10416;SDS011;5255;49.432;8.680;2022-07-24T01:37:34;3.50;;;3.20;;
10416;SDS011;5255;49.432;8.680;2022-07-24T01:40:03;6.50;;;3.20;;
10416;SDS011;5255;49.432;8.680;2022-07-24T01:42:31;3.80;;;2.80;;
10416;SDS011;5255;49.432;8.680;2022-07-24T01:44:58;3.88;;;3.10;;
10416;SDS011;5255;49.432;8.680;2022-07-24T01:47:26;4.63;;;2.90;;
10416;SDS011;5255;49.432;8.680;2022-07-24T01:49:53;3.95;;;3.38;;
10416;SDS011;5255;49.432;8.680;2022-07-24T01:52:20;4.18;;;2.65;;
10416;SDS011;5255;49.432;8.680;2022-07-24T01:54:50;3.83;;;3.00;;
10416;SDS011;5255;49.432;8.680;2022-07-24T01:57:18;4.63;;;2.90;;
10416;SDS011;5255;49.432;8.680;2022-07-24T01:59:45;5.15;;;3.00;;
10416;SDS011;5255;49.432;8.680;2022-07-24T02:02:13;4.63;;;3.25;;
10416;SDS011;5255;49.432;8.680;2022-07-24T02:04:40;5.03;;;3.33;;
10416;SDS011;5255;49.432;8.680;2022-07-24T02:07:07;4.95;;;3.22;;
10416;SDS011;5255;49.432;8.680;2022-07-24T02:09:34;4.38;;;3.50;;
10416;SDS011;5255;49.432;8.680;2022-07-24T02:12:01;4.25;;;3.28;;
10416;SDS011;5255;49.432;8.680;2022-07-24T02:14:30;3.65;;;3.05;;
10416;SDS011;5255;49.432;8.680;2022-07-24T02:16:57;3.40;;;2.97;;
10416;SDS011;5255;49.432;8.680;2022-07-24T02:19:25;3.95;;;3.22;;
10416;SDS011;5255;49.432;8.680;2022-07-24T02:21:52;3.40;;;3.10;;
10416;SDS011;5255;49.432;8.680;2022-07-24T02:24:19;4.93;;;3.13;;
10416;SDS011;5255;49.432;8.680;2022-07-24T02:26:46;4.82;;;3.42;;
10416;SDS011;5255;49.432;8.680;2022-07-24T02:29:13;6.43;;;4.28;;
10416;SDS011;5255;49.432;8.680;2022-07-24T02:31:42;4.43;;;3.60;;
10416;SDS011;5255;49.432;8.680;2022-07-24T02:34:09;5.03;;;3.60;;
10416;SDS011;5255;49.432;8.680;2022-07-24T02:36:37;4.35;;;3.50;;
10416;SDS011;5255;49.432;8.680;2022-07-24T02:39:04;5.53;;;3.65;;
10416;SDS011;5255;49.432;8.680;2022-07-24T02:41:31;3.65;;;3.35;;
10416;SDS011;5255;49.432;8.680;2022-07-24T02:43:58;4.95;;;2.90;;
10416;SDS011;5255;49.432;8.680;2022-07-24T02:46:25;5.07;;;3.33;;
10416;SDS011;5255;49.432;8.680;2022-07-24T02:48:54;4.00;;;3.60;;
10416;SDS011;5255;49.432;8.680;2022-07-24T02:51:21;3.83;;;3.35;;
10416;SDS011;5255;49.432;8.680;2022-07-24T02:53:48;4.53;;;3.40;;
10416;SDS011;5255;49.432;8.680;2022-07-24T02:56:15;4.38;;;3.78;;
10416;SDS011;5255;49.432;8.680;2022-07-24T02:58:42;5.60;;;3.67;;
10416;SDS011;5255;49.432;8.680;2022-07-24T03:01:10;4.20;;;3.42;;
10416;SDS011;5255;49.432;8.680;2022-07-24T03:03:37;3.65;;;3.15;;
10416;SDS011;5255;49.432;8.680;2022-07-24T03:06:06;3.83;;;3.42;;
10416;SDS011;5255;49.432;8.680;2022-07-24T03:08:33;4.68;;;3.42;;
10416;SDS011;5255;49.432;8.680;2022-07-24T03:11:00;3.17;;;2.83;;
10416;SDS011;5255;49.432;8.680;2022-07-24T03:13:27;4.13;;;2.97;;
10416;SDS011;5255;49.432;8.680;2022-07-24T03:15:54;4.38;;;3.30;;
10416;SDS011;5255;49.432;8.680;2022-07-24T03:18:21;3.90;;;3.58;;
10416;SDS011;5255;49.432;8.680;2022-07-24T03:20:49;4.60;;;3.80;;
10416;SDS011;5255;49.432;8.680;2022-07-24T03:23:17;4.78;;;3.88;;
10416;SDS011;5255;49.432;8.680;2022-07-24T03:25:44;4.50;;;3.75;;
10416;SDS011;5255;49.432;8.680;2022-07-24T03:28:12;4.30;;;3.90;;
10416;SDS011;5255;49.432;8.680;2022-07-24T03:30:39;4.40;;;4.00;;
10416;SDS011;5255;49.432;8.680;2022-07-24T03:33:06;3.58;;;3.28;;
10416;SDS011;5255;49.432;8.680;2022-07-24T03:35:33;3.70;;;3.40;;
10416;SDS011;5255;49.432;8.680;2022-07-24T03:38:00;4.72;;;4.05;;
10416;SDS011;5255;49.432;8.680;2022-07-24T03:40:29;4.47;;;3.88;;
10416;SDS011;5255;49.432;8.680;2022-07-24T03:42:56;5.40;;;3.78;;
10416;SDS011;5255;49.432;8.680;2022-07-24T03:45:23;4.82;;;3.42;;
10416;SDS011;5255;49.432;8.680;2022-07-24T03:47:50;4.80;;;3.50;;
10416;SDS011;5255;49.432;8.680;2022-07-24T03:50:17;3.70;;;3.17;;
10416;SDS011;5255;49.432;8.680;2022-07-24T03:52:44;5.22;;;4.15;;
10416;SDS011;5255;49.432;8.680;2022-07-24T03:55:11;5.80;;;3.42;;
10416;SDS011;5255;49.432;8.680;2022-07-24T03:57:40;4.90;;;3.53;;
10416;SDS011;5255;49.432;8.680;2022-07-24T04:00:07;3.90;;;3.35;;
10416;SDS011;5255;49.432;8.680;2022-07-24T04:02:35;5.03;;;3.92;;
10416;SDS011;5255;49.432;8.680;2022-07-24T04:05:03;4.72;;;3.65;;
10416;SDS011;5255;49.432;8.680;2022-07-24T04:07:33;8.25;;;4.05;;
10416;SDS011;5255;49.432;8.680;2022-07-24T04:10:00;3.50;;;3.20;;
10416;SDS011;5255;49.432;8.680;2022-07-24T04:12:28;4.68;;;3.55;;
10416;SDS011;5255;49.432;8.680;2022-07-24T04:14:56;5.82;;;3.75;;
10416;SDS011;5255;49.432;8.680;2022-07-24T04:17:24;4.15;;;3.67;;
10416;SDS011;5255;49.432;8.680;2022-07-24T04:19:51;4.30;;;3.70;;
10416;SDS011;5255;49.432;8.680;2022-07-24T04:22:18;6.50;;;3.85;;
10416;SDS011;5255;49.432;8.680;2022-07-24T04:24:45;5.85;;;3.75;;
10416;SDS011;5255;49.432;8.680;2022-07-24T04:27:12;5.03;;;3.58;;
10416;SDS011;5255;49.432;8.680;2022-07-24T04:29:39;5.30;;;3.60;;
10416;SDS011;5255;49.432;8.680;2022-07-24T04:32:08;8.07;;;3.50;;
10416;SDS011;5255;49.432;8.680;2022-07-24T04:34:35;4.55;;;3.67;;
10416;SDS011;5255;49.432;8.680;2022-07-24T04:37:02;7.10;;;3.45;;
10416;SDS011;5255;49.432;8.680;2022-07-24T04:39:30;6.70;;;3.55;;
10416;SDS011;5255;49.432;8.680;2022-07-24T04:41:57;4.53;;;3.38;;
10416;SDS011;5255;49.432;8.680;2022-07-24T04:44:24;7.97;;;4.15;;
10416;SDS011;5255;49.432;8.680;2022-07-24T04:46:51;6.45;;;3.53;;
10416;SDS011;5255;49.432;8.680;2022-07-24T04:49:20;5.30;;;3.80;;
10416;SDS011;5255;49.432;8.680;2022-07-24T04:51:47;6.13;;;3.40;;
10416;SDS011;5255;49.432;8.680;2022-07-24T04:54:14;5.38;;;3.95;;
10416;SDS011;5255;49.432;8.680;2022-07-24T04:56:41;5.57;;;3.67;;
10416;SDS011;5255;49.432;8.680;2022-07-24T04:59:08;5.30;;;4.38;;
10416;SDS011;5255;49.432;8.680;2022-07-24T05:01:35;6.78;;;4.43;;
10416;SDS011;5255;49.432;8.680;2022-07-24T05:04:03;6.20;;;3.58;;
10416;SDS011;5255;49.432;8.680;2022-07-24T05:06:32;4.45;;;3.75;;
10416;SDS011;5255;49.432;8.680;2022-07-24T05:08:59;5.50;;;3.38;;
10416;SDS011;5255;49.432;8.680;2022-07-24T05:11:26;4.75;;;3.53;;
10416;SDS011;5255;49.432;8.680;2022-07-24T05:13:53;4.25;;;3.85;;
10416;SDS011;5255;49.432;8.680;2022-07-24T05:16:20;4.93;;;4.20;;
10416;SDS011;5255;49.432;8.680;2022-07-24T05:18:47;4.10;;;3.63;;
10416;SDS011;5255;49.432;8.680;2022-07-24T05:21:14;3.80;;;3.35;;
10416;SDS011;5255;49.432;8.680;2022-07-24T05:23:43;3.65;;;3.22;;
10416;SDS011;5255;49.432;8.680;2022-07-24T05:26:10;4.95;;;3.78;;
10416;SDS011;5255;49.432;8.680;2022-07-24T05:28:37;4.63;;;3.83;;
10416;SDS011;5255;49.432;8.680;2022-07-24T05:31:05;6.10;;;3.85;;
10416;SDS011;5255;49.432;8.680;2022-07-24T05:33:33;4.95;;;3.70;;
10416;SDS011;5255;49.432;8.680;2022-07-24T05:36:00;4.05;;;3.65;;
10416;SDS011;5255;49.432;8.680;2022-07-24T05:38:27;4.57;;;4.07;;
10416;SDS011;5255;49.432;8.680;2022-07-24T05:40:56;5.10;;;4.15;;
10416;SDS011;5255;49.432;8.680;2022-07-24T05:43:23;6.85;;;4.32;;
10416;SDS011;5255;49.432;8.680;2022-07-24T05:45:50;5.00;;;4.28;;
10416;SDS011;5255;49.432;8.680;2022-07-24T05:48:17;4.68;;;4.00;;
10416;SDS011;5255;49.432;8.680;2022-07-24T05:50:44;4.40;;;3.80;;
10416;SDS011;5255;49.432;8.680;2022-07-24T05:53:11;4.78;;;3.78;;
10416;SDS011;5255;49.432;8.680;2022-07-24T05:55:39;4.78;;;3.45;;
10416;SDS011;5255;49.432;8.680;2022-07-24T05:58:07;6.85;;;4.43;;
10416;SDS011;5255;49.432;8.680;2022-07-24T06:00:34;4.25;;;3.30;;
10416;SDS011;5255;49.432;8.680;2022-07-24T06:03:01;5.05;;;3.55;;
10416;SDS011;5255;49.432;8.680;2022-07-24T06:05:28;6.30;;;4.30;;
10416;SDS011;5255;49.432;8.680;2022-07-24T06:07:59;5.38;;;3.85;;
10416;SDS011;5255;49.432;8.680;2022-07-24T06:10:27;5.60;;;4.10;;
10416;SDS011;5255;49.432;8.680;2022-07-24T06:12:54;5.85;;;4.35;;
10416;SDS011;5255;49.432;8.680;2022-07-24T06:15:23;4.95;;;3.90;;
10416;SDS011;5255;49.432;8.680;2022-07-24T06:17:50;4.45;;;4.03;;
10416;SDS011;5255;49.432;8.680;2022-07-24T06:20:17;5.05;;;3.67;;
10416;SDS011;5255;49.432;8.680;2022-07-24T06:22:44;6.45;;;3.90;;
10416;SDS011;5255;49.432;8.680;2022-07-24T06:25:11;7.38;;;4.10;;
10416;SDS011;5255;49.432;8.680;2022-07-24T06:27:40;4.05;;;3.58;;
10416;SDS011;5255;49.432;8.680;2022-07-24T06:30:11;4.70;;;4.20;;
10416;SDS011;5255;49.432;8.680;2022-07-24T06:32:41;5.20;;;4.10;;
10416;SDS011;5255;49.432;8.680;2022-07-24T06:35:09;4.93;;;3.67;;
10416;SDS011;5255;49.432;8.680;2022-07-24T06:37:36;5.18;;;4.13;;
10416;SDS011;5255;49.432;8.680;2022-07-24T06:40:03;4.78;;;4.05;;
10416;SDS011;5255;49.432;8.680;2022-07-24T06:42:32;4.55;;;3.90;;
10416;SDS011;5255;49.432;8.680;2022-07-24T06:44:59;4.18;;;3.63;;
10416;SDS011;5255;49.432;8.680;2022-07-24T06:47:26;5.93;;;3.90;;
10416;SDS011;5255;49.432;8.680;2022-07-24T06:49:55;4.45;;;3.85;;
10416;SDS011;5255;49.432;8.680;2022-07-24T06:52:22;4.88;;;3.78;;
10416;SDS011;5255;49.432;8.680;2022-07-24T06:54:49;7.68;;;4.30;;
10416;SDS011;5255;49.432;8.680;2022-07-24T06:57:17;4.43;;;4.03;;
10416;SDS011;5255;49.432;8.680;2022-07-24T06:59:44;4.25;;;3.85;;
10416;SDS011;5255;49.432;8.680;2022-07-24T07:02:11;6.32;;;4.13;;
10416;SDS011;5255;49.432;8.680;2022-07-24T07:04:39;6.90;;;4.35;;
10416;SDS011;5255;49.432;8.680;2022-07-24T07:07:07;4.30;;;3.85;;
10416;SDS011;5255;49.432;8.680;2022-07-24T07:09:34;6.15;;;3.95;;
10416;SDS011;5255;49.432;8.680;2022-07-24T07:12:02;6.05;;;4.88;;
10416;SDS011;5255;49.432;8.680;2022-07-24T07:14:29;5.50;;;4.47;;
10416;SDS011;5255;49.432;8.680;2022-07-24T07:16:56;4.65;;;4.10;;
10416;SDS011;5255;49.432;8.680;2022-07-24T07:19:24;5.25;;;4.72;;
10416;SDS011;5255;49.432;8.680;2022-07-24T07:21:51;6.80;;;4.55;;
10416;SDS011;5255;49.432;8.680;2022-07-24T07:24:19;4.35;;;3.85;;
10416;SDS011;5255;49.432;8.680;2022-07-24T07:26:46;6.85;;;4.43;;
10416;SDS011;5255;49.432;8.680;2022-07-24T07:29:13;4.20;;;3.80;;
10416;SDS011;5255;49.432;8.680;2022-07-24T07:31:40;6.30;;;4.38;;
10416;SDS011;5255;49.432;8.680;2022-07-24T07:34:07;4.63;;;4.13;;
10416;SDS011;5255;49.432;8.680;2022-07-24T07:36:35;4.30;;;3.90;;
10416;SDS011;5255;49.432;8.680;2022-07-24T07:39:02;4.43;;;4.03;;
10416;SDS011;5255;49.432;8.680;2022-07-24T07:41:31;4.93;;;4.05;;
10416;SDS011;5255;49.432;8.680;2022-07-24T07:43:58;7.22;;;4.32;;
10416;SDS011;5255;49.432;8.680;2022-07-24T07:46:26;5.50;;;4.53;;
10416;SDS011;5255;49.432;8.680;2022-07-24T07:48:53;5.13;;;3.85;;
10416;SDS011;5255;49.432;8.680;2022-07-24T07:51:20;4.57;;;4.07;;
10416;SDS011;5255;49.432;8.680;2022-07-24T07:53:47;6.20;;;4.00;;
10416;SDS011;5255;49.432;8.680;2022-07-24T07:56:15;4.43;;;3.95;;
10416;SDS011;5255;49.432;8.680;2022-07-24T07:58:43;6.07;;;4.43;;
10416;SDS011;5255;49.432;8.680;2022-07-24T08:01:10;5.05;;;4.20;;
10416;SDS011;5255;49.432;8.680;2022-07-24T08:03:38;5.25;;;3.95;;
10416;SDS011;5255;49.432;8.680;2022-07-24T08:06:05;4.25;;;3.80;;
10416;SDS011;5255;49.432;8.680;2022-07-24T08:08:33;4.00;;;3.60;;
10416;SDS011;5255;49.432;8.680;2022-07-24T08:11:00;4.57;;;4.13;;
10416;SDS011;5255;49.432;8.680;2022-07-24T08:13:27;4.50;;;4.05;;
10416;SDS011;5255;49.432;8.680;2022-07-24T08:15:55;7.45;;;5.28;;
10416;SDS011;5255;49.432;8.680;2022-07-24T08:18:22;6.50;;;4.25;;
10416;SDS011;5255;49.432;8.680;2022-07-24T08:20:50;5.38;;;4.22;;
10416;SDS011;5255;49.432;8.680;2022-07-24T08:23:18;5.30;;;4.38;;
10416;SDS011;5255;49.432;8.680;2022-07-24T08:25:45;5.18;;;4.68;;
10416;SDS011;5255;49.432;8.680;2022-07-24T08:28:12;5.80;;;4.63;;
10416;SDS011;5255;49.432;8.680;2022-07-24T08:30:39;5.63;;;4.53;;
10416;SDS011;5255;49.432;8.680;2022-07-24T08:33:08;6.00;;;4.90;;
10416;SDS011;5255;49.432;8.680;2022-07-24T08:35:35;5.38;;;4.45;;
10416;SDS011;5255;49.432;8.680;2022-07-24T08:38:02;6.30;;;4.38;;
10416;SDS011;5255;49.432;8.680;2022-07-24T08:40:32;4.85;;;3.85;;
10416;SDS011;5255;49.432;8.680;2022-07-24T08:43:01;4.72;;;4.32;;
10416;SDS011;5255;49.432;8.680;2022-07-24T08:45:29;5.65;;;4.60;;
10416;SDS011;5255;49.432;8.680;2022-07-24T08:47:59;6.80;;;4.32;;
10416;SDS011;5255;49.432;8.680;2022-07-24T08:50:31;4.65;;;4.22;;
10416;SDS011;5255;49.432;8.680;2022-07-24T08:52:59;5.07;;;4.55;;
10416;SDS011;5255;49.432;8.680;2022-07-24T08:55:26;5.07;;;4.43;;
10416;SDS011;5255;49.432;8.680;2022-07-24T08:57:55;5.50;;;4.93;;
10416;SDS011;5255;49.432;8.680;2022-07-24T09:00:22;7.30;;;4.82;;
10416;SDS011;5255;49.432;8.680;2022-07-24T09:02:49;5.95;;;4.82;;
10416;SDS011;5255;49.432;8.680;2022-07-24T09:05:17;6.90;;;4.93;;
10416;SDS011;5255;49.432;8.680;2022-07-24T09:07:46;5.50;;;4.47;;
10416;SDS011;5255;49.432;8.680;2022-07-24T09:10:14;5.45;;;4.90;;
10416;SDS011;5255;49.432;8.680;2022-07-24T09:12:43;5.40;;;4.90;;
10416;SDS011;5255;49.432;8.680;2022-07-24T09:15:12;6.15;;;5.22;;
10416;SDS011;5255;49.432;8.680;2022-07-24T09:17:47;5.65;;;5.03;;
10416;SDS011;5255;49.432;8.680;2022-07-24T09:20:15;7.32;;;5.50;;
10416;SDS011;5255;49.432;8.680;2022-07-24T09:22:42;5.60;;;5.10;;
10416;SDS011;5255;49.432;8.680;2022-07-24T09:25:14;5.90;;;5.03;;
10416;SDS011;5255;49.432;8.680;2022-07-24T09:27:47;6.05;;;5.28;;
10416;SDS011;5255;49.432;8.680;2022-07-24T09:30:26;5.20;;;4.70;;
10416;SDS011;5255;49.432;8.680;2022-07-24T09:32:57;5.15;;;4.63;;
10416;SDS011;5255;49.432;8.680;2022-07-24T09:35:28;6.95;;;5.10;;
10416;SDS011;5255;49.432;8.680;2022-07-24T09:37:57;6.03;;;4.70;;
10416;SDS011;5255;49.432;8.680;2022-07-24T09:40:31;5.88;;;4.53;;
10416;SDS011;5255;49.432;8.680;2022-07-24T09:43:19;7.47;;;5.85;;
10416;SDS011;5255;49.432;8.680;2022-07-24T09:45:57;5.55;;;4.55;;
10416;SDS011;5255;49.432;8.680;2022-07-24T09:48:28;5.50;;;4.55;;
10416;SDS011;5255;49.432;8.680;2022-07-24T09:50:57;5.82;;;5.15;;
10416;SDS011;5255;49.432;8.680;2022-07-24T09:53:26;5.53;;;5.03;;
10416;SDS011;5255;49.432;8.680;2022-07-24T09:55:58;5.05;;;4.55;;
10416;SDS011;5255;49.432;8.680;2022-07-24T09:58:27;6.82;;;4.60;;
10416;SDS011;5255;49.432;8.680;2022-07-24T10:00:56;5.75;;;4.40;;
10416;SDS011;5255;49.432;8.680;2022-07-24T10:03:26;5.25;;;4.75;;
10416;SDS011;5255;49.432;8.680;2022-07-24T10:05:56;10.55;;;5.20;;
10416;SDS011;5255;49.432;8.680;2022-07-24T10:08:27;5.47;;;4.45;;
10416;SDS011;5255;49.432;8.680;2022-07-24T10:10:55;6.30;;;5.32;;
10416;SDS011;5255;49.432;8.680;2022-07-24T10:13:26;5.20;;;4.60;;
10416;SDS011;5255;49.432;8.680;2022-07-24T10:16:00;5.85;;;4.90;;
10416;SDS011;5255;49.432;8.680;2022-07-24T10:18:41;6.35;;;4.68;;
10416;SDS011;5255;49.432;8.680;2022-07-24T10:21:15;6.60;;;4.93;;
10416;SDS011;5255;49.432;8.680;2022-07-24T10:24:04;5.57;;;5.07;;
10416;SDS011;5255;49.432;8.680;2022-07-24T10:26:48;5.97;;;5.38;;
10416;SDS011;5255;49.432;8.680;2022-07-24T10:29:17;8.32;;;4.20;;
10416;SDS011;5255;49.432;8.680;2022-07-24T10:31:47;6.35;;;5.63;;
10416;SDS011;5255;49.432;8.680;2022-07-24T10:34:18;5.30;;;4.80;;
10416;SDS011;5255;49.432;8.680;2022-07-24T10:36:57;6.53;;;5.22;;
10416;SDS011;5255;49.432;8.680;2022-07-24T10:39:35;5.50;;;5.00;;
10416;SDS011;5255;49.432;8.680;2022-07-24T10:42:12;4.70;;;4.30;;
10416;SDS011;5255;49.432;8.680;2022-07-24T10:44:39;5.18;;;4.68;;
10416;SDS011;5255;49.432;8.680;2022-07-24T10:47:07;5.68;;;4.88;;
10416;SDS011;5255;49.432;8.680;2022-07-24T10:49:43;5.93;;;4.97;;
10416;SDS011;5255;49.432;8.680;2022-07-24T10:52:21;5.10;;;4.57;;
10416;SDS011;5255;49.432;8.680;2022-07-24T10:57:53;5.65;;;4.80;;
10416;SDS011;5255;49.432;8.680;2022-07-24T11:00:22;5.68;;;4.72;;
10416;SDS011;5255;49.432;8.680;2022-07-24T11:02:54;5.63;;;4.90;;
10416;SDS011;5255;49.432;8.680;2022-07-24T11:05:23;5.38;;;4.80;;
10416;SDS011;5255;49.432;8.680;2022-07-24T11:11:09;5.90;;;5.20;;
10416;SDS011;5255;49.432;8.680;2022-07-24T11:13:41;5.50;;;4.93;;
10416;SDS011;5255;49.432;8.680;2022-07-24T11:16:17;5.35;;;4.68;;
10416;SDS011;5255;49.432;8.680;2022-07-24T11:22:03;5.30;;;4.80;;
10416;SDS011;5255;49.432;8.680;2022-07-24T11:24:40;7.30;;;4.55;;
10416;SDS011;5255;49.432;8.680;2022-07-24T11:27:30;6.28;;;4.80;;
10416;SDS011;5255;49.432;8.680;2022-07-24T11:33:38;4.72;;;4.32;;
10416;SDS011;5255;49.432;8.680;2022-07-24T11:36:06;5.63;;;4.75;;
10416;SDS011;5255;49.432;8.680;2022-07-24T11:38:34;5.20;;;4.70;;
10416;SDS011;5255;49.432;8.680;2022-07-24T11:41:04;4.82;;;4.30;;
10416;SDS011;5255;49.432;8.680;2022-07-24T11:43:33;5.72;;;4.90;;
10416;SDS011;5255;49.432;8.680;2022-07-24T11:46:00;4.57;;;4.18;;
10416;SDS011;5255;49.432;8.680;2022-07-24T11:48:29;5.57;;;4.93;;
10416;SDS011;5255;49.432;8.680;2022-07-24T11:51:08;5.00;;;4.50;;
10416;SDS011;5255;49.432;8.680;2022-07-24T11:53:45;5.75;;;5.25;;
10416;SDS011;5255;49.432;8.680;2022-07-24T11:56:12;5.20;;;4.63;;
10416;SDS011;5255;49.432;8.680;2022-07-24T11:58:43;5.07;;;4.13;;
10416;SDS011;5255;49.432;8.680;2022-07-24T12:01:18;5.95;;;4.60;;
10416;SDS011;5255;49.432;8.680;2022-07-24T12:03:49;5.65;;;4.68;;
10416;SDS011;5255;49.432;8.680;2022-07-24T12:06:19;5.13;;;4.63;;
10416;SDS011;5255;49.432;8.680;2022-07-24T12:08:46;4.70;;;4.15;;
10416;SDS011;5255;49.432;8.680;2022-07-24T12:11:19;6.13;;;4.55;;
10416;SDS011;5255;49.432;8.680;2022-07-24T12:13:48;5.47;;;4.05;;
10416;SDS011;5255;49.432;8.680;2022-07-24T12:16:22;5.40;;;4.88;;
10416;SDS011;5255;49.432;8.680;2022-07-24T12:18:50;4.72;;;4.18;;
10416;SDS011;5255;49.432;8.680;2022-07-24T12:21:25;5.63;;;4.72;;
10416;SDS011;5255;49.432;8.680;2022-07-24T12:23:58;5.95;;;4.63;;
10416;SDS011;5255;49.432;8.680;2022-07-24T12:26:25;7.03;;;4.40;;
10416;SDS011;5255;49.432;8.680;2022-07-24T12:29:07;4.43;;;4.03;;
10416;SDS011;5255;49.432;8.680;2022-07-24T12:31:35;4.97;;;4.38;;
10416;SDS011;5255;49.432;8.680;2022-07-24T12:34:02;5.57;;;4.10;;
10416;SDS011;5255;49.432;8.680;2022-07-24T12:36:31;4.63;;;4.00;;
10416;SDS011;5255;49.432;8.680;2022-07-24T12:38:59;4.78;;;4.15;;
10416;SDS011;5255;49.432;8.680;2022-07-24T12:41:28;5.25;;;4.68;;
10416;SDS011;5255;49.432;8.680;2022-07-24T12:43:56;5.55;;;4.45;;
10416;SDS011;5255;49.432;8.680;2022-07-24T12:46:29;4.72;;;4.28;;
10416;SDS011;5255;49.432;8.680;2022-07-24T12:48:58;5.53;;;5.03;;
10416;SDS011;5255;49.432;8.680;2022-07-24T12:51:26;4.97;;;4.45;;
10416;SDS011;5255;49.432;8.680;2022-07-24T12:53:55;5.90;;;4.90;;
10416;SDS011;5255;49.432;8.680;2022-07-24T12:56:23;6.68;;;4.50;;
10416;SDS011;5255;49.432;8.680;2022-07-24T12:58:54;4.63;;;4.18;;
10416;SDS011;5255;49.432;8.680;2022-07-24T13:01:24;6.97;;;4.78;;
10416;SDS011;5255;49.432;8.680;2022-07-24T13:03:53;4.65;;;4.20;;
10416;SDS011;5255;49.432;8.680;2022-07-24T13:06:31;4.43;;;4.03;;
10416;SDS011;5255;49.432;8.680;2022-07-24T13:09:01;6.10;;;4.50;;
10416;SDS011;5255;49.432;8.680;2022-07-24T13:11:29;5.18;;;4.50;;
10416;SDS011;5255;49.432;8.680;2022-07-24T13:13:56;4.70;;;4.30;;
10416;SDS011;5255;49.432;8.680;2022-07-24T13:16:26;4.57;;;4.18;;
10416;SDS011;5255;49.432;8.680;2022-07-24T13:18:54;5.45;;;4.38;;
10416;SDS011;5255;49.432;8.680;2022-07-24T13:21:22;4.18;;;3.78;;
10416;SDS011;5255;49.432;8.680;2022-07-24T13:23:49;4.63;;;4.00;;
10416;SDS011;5255;49.432;8.680;2022-07-24T13:26:19;4.68;;;4.13;;
10416;SDS011;5255;49.432;8.680;2022-07-24T13:28:47;5.47;;;4.10;;
10416;SDS011;5255;49.432;8.680;2022-07-24T13:31:15;4.68;;;4.28;;
10416;SDS011;5255;49.432;8.680;2022-07-24T13:33:44;5.32;;;4.35;;
10416;SDS011;5255;49.432;8.680;2022-07-24T13:36:13;5.00;;;4.50;;
10416;SDS011;5255;49.432;8.680;2022-07-24T13:38:41;4.63;;;4.22;;
10416;SDS011;5255;49.432;8.680;2022-07-24T13:41:08;4.03;;;3.63;;
10416;SDS011;5255;49.432;8.680;2022-07-24T13:43:37;4.07;;;3.67;;
10416;SDS011;5255;49.432;8.680;2022-07-24T13:46:04;4.95;;;3.85;;
10416;SDS011;5255;49.432;8.680;2022-07-24T13:48:32;4.88;;;3.85;;
10416;SDS011;5255;49.432;8.680;2022-07-24T13:50:59;5.00;;;3.40;;
10416;SDS011;5255;49.432;8.680;2022-07-24T13:53:26;4.00;;;3.25;;
10416;SDS011;5255;49.432;8.680;2022-07-24T13:55:54;4.03;;;3.60;;
10416;SDS011;5255;49.432;8.680;2022-07-24T13:58:21;4.20;;;3.80;;
10416;SDS011;5255;49.432;8.680;2022-07-24T14:00:50;6.40;;;3.75;;
10416;SDS011;5255;49.432;8.680;2022-07-24T14:03:17;4.00;;;3.70;;
10416;SDS011;5255;49.432;8.680;2022-07-24T14:05:45;4.22;;;3.83;;
10416;SDS011;5255;49.432;8.680;2022-07-24T14:08:12;4.00;;;3.38;;
10416;SDS011;5255;49.432;8.680;2022-07-24T14:10:40;4.13;;;3.30;;
10416;SDS011;5255;49.432;8.680;2022-07-24T14:13:07;3.47;;;3.17;;
10416;SDS011;5255;49.432;8.680;2022-07-24T14:15:34;3.17;;;2.78;;
10416;SDS011;5255;49.432;8.680;2022-07-24T14:18:04;3.38;;;3.08;;
10416;SDS011;5255;49.432;8.680;2022-07-24T14:20:32;3.58;;;3.00;;
10416;SDS011;5255;49.432;8.680;2022-07-24T14:22:59;3.97;;;3.58;;
10416;SDS011;5255;49.432;8.680;2022-07-24T14:25:26;4.13;;;2.90;;
10416;SDS011;5255;49.432;8.680;2022-07-24T14:27:54;4.40;;;3.13;;
10416;SDS011;5255;49.432;8.680;2022-07-24T14:30:21;3.50;;;3.20;;
10416;SDS011;5255;49.432;8.680;2022-07-24T14:32:49;3.40;;;3.10;;
10416;SDS011;5255;49.432;8.680;2022-07-24T14:35:18;3.60;;;3.13;;
10416;SDS011;5255;49.432;8.680;2022-07-24T14:37:45;4.95;;;3.63;;
10416;SDS011;5255;49.432;8.680;2022-07-24T14:40:13;3.70;;;3.40;;
10416;SDS011;5255;49.432;8.680;2022-07-24T14:42:40;3.63;;;3.28;;
10416;SDS011;5255;49.432;8.680;2022-07-24T14:45:08;3.53;;;3.22;;
10416;SDS011;5255;49.432;8.680;2022-07-24T14:47:35;5.55;;;3.45;;
10416;SDS011;5255;49.432;8.680;2022-07-24T14:50:04;3.88;;;3.25;;
10416;SDS011;5255;49.432;8.680;2022-07-24T14:52:34;3.10;;;2.83;;
10416;SDS011;5255;49.432;8.680;2022-07-24T14:55:02;4.55;;;3.40;;
10416;SDS011;5255;49.432;8.680;2022-07-24T14:57:30;3.92;;;3.47;;
10416;SDS011;5255;49.432;8.680;2022-07-24T14:59:57;3.60;;;3.30;;
10416;SDS011;5255;49.432;8.680;2022-07-24T15:02:25;4.30;;;3.47;;
10416;SDS011;5255;49.432;8.680;2022-07-24T15:04:52;3.72;;;3.42;;
10416;SDS011;5255;49.432;8.680;2022-07-24T15:07:20;3.35;;;3.05;;
10416;SDS011;5255;49.432;8.680;2022-07-24T15:09:49;3.60;;;3.30;;
10416;SDS011;5255;49.432;8.680;2022-07-24T15:12:16;3.47;;;3.10;;
10416;SDS011;5255;49.432;8.680;2022-07-24T15:14:43;3.90;;;3.60;;
10416;SDS011;5255;49.432;8.680;2022-07-24T15:17:11;3.53;;;3.22;;
10416;SDS011;5255;49.432;8.680;2022-07-24T15:19:38;3.55;;;3.25;;
10416;SDS011;5255;49.432;8.680;2022-07-24T15:22:05;3.13;;;2.83;;